createdAt,value
2022-09-06T00:00:20.819Z,3.95
2022-09-06T00:02:49.360Z,3.97
2022-09-06T00:05:17.861Z,3.75
2022-09-06T00:07:46.243Z,4.28
2022-09-06T00:10:15.389Z,3.83
2022-09-06T00:12:43.781Z,4.65
2022-09-06T00:15:12.537Z,4.97
2022-09-06T00:17:44.849Z,4.57
2022-09-06T00:20:13.237Z,3.50
2022-09-06T00:22:42.041Z,3.67
2022-09-06T00:25:11.596Z,3.17
2022-09-06T00:27:40.262Z,3.58
2022-09-06T00:30:10.014Z,3.90
2022-09-06T00:32:39.028Z,4.20
2022-09-06T00:35:09.146Z,4.10
2022-09-06T00:37:37.681Z,3.80
2022-09-06T00:40:07.007Z,4.37
2022-09-06T00:45:04.128Z,6.30
2022-09-06T00:47:32.800Z,4.22
2022-09-06T00:50:02.347Z,4.10
2022-09-06T00:52:33.252Z,3.80
2022-09-06T00:55:02.777Z,4.03
2022-09-06T00:57:32.330Z,3.95
2022-09-06T01:00:01.822Z,4.20
2022-09-06T01:02:30.395Z,3.90
2022-09-06T01:04:59.367Z,3.88
2022-09-06T01:07:39.592Z,4.40
2022-09-06T01:10:33.868Z,3.90
2022-09-06T01:13:10.966Z,3.78
2022-09-06T01:15:55.267Z,4.35
2022-09-06T01:18:36.637Z,4.30
2022-09-06T01:21:25.679Z,4.40
2022-09-06T01:24:15.157Z,4.10
2022-09-06T01:27:17.077Z,4.30
2022-09-06T01:29:52.067Z,4.32
2022-09-06T01:32:28.177Z,4.43
2022-09-06T01:35:05.103Z,3.88
2022-09-06T01:37:34.299Z,4.35
2022-09-06T01:40:03.029Z,4.00
2022-09-06T01:42:34.467Z,4.50
2022-09-06T01:45:09.547Z,4.50
2022-09-06T01:47:47.334Z,4.55
2022-09-06T01:50:35.519Z,3.95
2022-09-06T01:53:18.693Z,4.18
2022-09-06T01:55:55.911Z,3.80
2022-09-06T01:58:40.587Z,3.70
2022-09-06T02:01:19.354Z,3.60
2022-09-06T02:03:54.969Z,3.95
2022-09-06T02:06:28.995Z,3.95
2022-09-06T02:09:03.726Z,3.33
2022-09-06T02:11:41.140Z,4.13
2022-09-06T02:14:15.713Z,4.40
2022-09-06T02:16:49.594Z,3.88
2022-09-06T02:19:24.043Z,4.13
2022-09-06T02:21:55.914Z,3.58
2022-09-06T02:24:29.136Z,3.95
2022-09-06T02:26:58.470Z,3.80
2022-09-06T02:32:04.111Z,3.80
2022-09-06T02:34:32.620Z,3.97
2022-09-06T02:37:02.012Z,6.53
2022-09-06T02:42:00.176Z,4.05
2022-09-06T02:44:28.941Z,4.30
2022-09-06T02:46:58.702Z,3.80
2022-09-06T02:49:27.259Z,4.28
2022-09-06T02:51:55.656Z,7.07
2022-09-06T02:54:24.232Z,8.77
2022-09-06T02:56:52.728Z,3.53
2022-09-06T02:59:21.421Z,3.85
2022-09-06T03:01:49.849Z,4.30
2022-09-06T03:04:19.602Z,4.75
2022-09-06T03:06:48.052Z,3.67
2022-09-06T03:09:16.619Z,4.13
2022-09-06T03:11:45.012Z,3.67
2022-09-06T03:14:13.602Z,3.73
2022-09-06T03:16:42.027Z,4.20
2022-09-06T03:19:10.418Z,4.17
2022-09-06T03:21:40.272Z,3.78
2022-09-06T03:24:08.719Z,4.30
2022-09-06T03:26:37.090Z,3.72
2022-09-06T03:29:05.479Z,4.83
2022-09-06T03:31:34.057Z,3.40
2022-09-06T03:34:02.517Z,3.63
2022-09-06T03:36:31.061Z,4.07
2022-09-06T03:39:00.824Z,4.65
2022-09-06T03:41:29.357Z,3.72
2022-09-06T03:43:57.732Z,3.47
2022-09-06T03:46:26.679Z,3.72
2022-09-06T03:48:55.063Z,5.03
2022-09-06T03:51:23.616Z,4.15
2022-09-06T03:53:52.198Z,4.93
2022-09-06T03:56:22.182Z,3.70
2022-09-06T03:58:50.728Z,3.33
2022-09-06T04:01:19.319Z,3.97
2022-09-06T04:03:48.155Z,4.88
2022-09-06T04:06:16.645Z,3.75
2022-09-06T04:08:45.009Z,4.23
2022-09-06T04:11:14.056Z,4.47
2022-09-06T04:13:43.782Z,3.45
2022-09-06T04:16:12.605Z,3.70
2022-09-06T04:18:41.226Z,5.10
2022-09-06T04:21:09.736Z,4.03
2022-09-06T04:23:40.037Z,4.03
2022-09-06T04:26:08.958Z,3.95
2022-09-06T04:28:37.429Z,3.65
2022-09-06T04:31:07.552Z,3.63
2022-09-06T04:33:38.405Z,5.63
2022-09-06T04:36:09.551Z,4.65
2022-09-06T04:38:40.407Z,3.83
2022-09-06T04:41:10.036Z,6.47
2022-09-06T04:43:38.329Z,4.63
2022-09-06T04:46:13.476Z,5.47
2022-09-06T04:48:41.945Z,4.95
2022-09-06T04:51:10.327Z,3.50
2022-09-06T04:53:38.907Z,4.40
2022-09-06T04:56:07.871Z,4.87
2022-09-06T04:58:36.426Z,5.90
2022-09-06T05:01:04.892Z,6.97
2022-09-06T05:03:34.841Z,4.10
2022-09-06T05:06:08.605Z,4.28
2022-09-06T05:08:38.863Z,4.22
2022-09-06T05:11:08.114Z,4.25
2022-09-06T05:13:37.058Z,4.05
2022-09-06T05:16:08.156Z,5.35
2022-09-06T05:18:38.252Z,4.88
2022-09-06T05:21:07.788Z,5.50
2022-09-06T05:23:36.404Z,4.18
2022-09-06T05:26:05.305Z,4.15
2022-09-06T05:28:34.028Z,5.00
2022-09-06T05:31:10.176Z,6.25
2022-09-06T05:33:40.487Z,6.43
2022-09-06T05:36:09.609Z,4.13
2022-09-06T05:38:40.185Z,5.55
2022-09-06T05:41:08.541Z,6.90
2022-09-06T05:43:37.060Z,5.97
2022-09-06T05:46:06.218Z,4.78
2022-09-06T05:48:37.035Z,4.32
2022-09-06T05:51:09.247Z,4.47
2022-09-06T05:53:38.322Z,5.75
2022-09-06T05:56:07.991Z,6.32
2022-09-06T05:58:36.446Z,5.57
2022-09-06T06:01:09.383Z,4.38
2022-09-06T06:03:39.053Z,6.00
2022-09-06T06:06:09.327Z,19.48
2022-09-06T06:08:37.927Z,12.90
2022-09-06T06:11:06.695Z,8.18
2022-09-06T06:13:39.541Z,8.70
2022-09-06T06:16:08.900Z,11.63
2022-09-06T06:21:11.528Z,7.30
2022-09-06T06:23:40.703Z,8.98
2022-09-06T06:26:09.995Z,4.53
2022-09-06T06:31:07.944Z,5.10
2022-09-06T06:33:36.473Z,5.22
2022-09-06T06:36:07.152Z,4.40
2022-09-06T06:38:38.837Z,3.28
2022-09-06T06:41:08.477Z,3.55
2022-09-06T06:43:38.055Z,3.10
2022-09-06T06:46:07.610Z,2.28
2022-09-06T06:48:36.479Z,6.00
2022-09-06T06:51:05.068Z,2.85
2022-09-06T06:53:34.024Z,2.55
2022-09-06T06:56:15.451Z,2.45
2022-09-06T06:58:44.697Z,3.85
2022-09-06T07:01:14.078Z,3.22
2022-09-06T07:03:42.967Z,2.53
2022-09-06T07:06:12.407Z,3.67
2022-09-06T07:08:42.143Z,2.45
2022-09-06T07:11:14.439Z,3.38
2022-09-06T07:13:43.078Z,3.28
2022-09-06T07:16:13.919Z,3.92
2022-09-06T07:18:43.225Z,2.00
2022-09-06T07:26:35.465Z,3.53
2022-09-06T07:29:06.279Z,7.00
2022-09-06T07:34:26.018Z,6.22
2022-09-06T07:36:55.208Z,2.55
2022-09-06T07:39:24.211Z,3.70
2022-09-06T07:41:54.145Z,5.22
2022-09-06T07:44:22.600Z,3.15
2022-09-06T07:46:52.658Z,3.08
2022-09-06T07:49:21.202Z,3.25
2022-09-06T07:51:49.848Z,1.65
2022-09-06T07:54:33.566Z,1.63
2022-09-06T07:57:03.371Z,3.22
2022-09-06T07:59:31.868Z,1.30
2022-09-06T08:02:00.343Z,2.77
2022-09-06T08:04:28.882Z,1.30
2022-09-06T08:09:45.960Z,2.70
2022-09-06T08:12:15.712Z,2.63
2022-09-06T08:14:44.329Z,1.35
2022-09-06T08:17:12.699Z,1.10
2022-09-06T08:19:41.115Z,1.25
2022-09-06T08:22:09.503Z,1.40
2022-09-06T08:24:38.854Z,1.13
2022-09-06T08:29:37.854Z,2.15
2022-09-06T08:32:06.281Z,2.20
2022-09-06T08:34:35.086Z,0.97
2022-09-06T08:37:03.579Z,3.75
2022-09-06T08:39:32.136Z,1.37
2022-09-06T08:42:03.903Z,2.00
2022-09-06T08:47:28.047Z,2.03
2022-09-06T08:50:02.317Z,0.90
2022-09-06T08:53:15.739Z,1.63
2022-09-06T08:55:49.801Z,1.65
2022-09-06T08:58:35.917Z,1.23
2022-09-06T09:01:08.627Z,1.40
2022-09-06T09:03:40.368Z,1.23
2022-09-06T09:06:10.474Z,0.70
2022-09-06T09:08:46.552Z,1.85
2022-09-06T09:11:20.150Z,0.63
2022-09-06T09:13:56.030Z,0.70
2022-09-06T09:16:25.419Z,1.00
2022-09-06T09:18:59.235Z,0.70
2022-09-06T09:21:30.946Z,1.55
2022-09-06T09:24:03.217Z,0.88
2022-09-06T09:26:37.810Z,0.50
2022-09-06T09:29:08.882Z,1.02
2022-09-06T09:31:39.762Z,0.55
2022-09-06T09:34:13.419Z,0.47
2022-09-06T09:39:37.016Z,2.38
2022-09-06T09:42:06.208Z,0.50
2022-09-06T09:44:34.775Z,0.60
2022-09-06T09:47:23.862Z,0.63
2022-09-06T09:49:53.617Z,1.38
2022-09-06T09:52:27.844Z,0.43
2022-09-06T09:54:59.073Z,0.40
2022-09-06T09:57:28.479Z,0.43
2022-09-06T09:59:58.894Z,1.88
2022-09-06T10:02:29.830Z,0.43
2022-09-06T10:05:04.424Z,2.40
2022-09-06T10:07:34.155Z,1.67
2022-09-06T10:10:06.030Z,1.23
2022-09-06T10:12:36.605Z,1.20
2022-09-06T10:15:07.164Z,2.42
2022-09-06T10:17:38.015Z,1.67
2022-09-06T10:20:10.320Z,5.00
2022-09-06T10:22:51.979Z,1.60
2022-09-06T10:25:49.180Z,1.10
2022-09-06T10:28:37.058Z,1.58
2022-09-06T10:31:36.590Z,1.75
2022-09-06T10:34:18.096Z,2.90
2022-09-06T10:36:53.824Z,0.55
2022-09-06T10:39:38.829Z,1.23
2022-09-06T10:42:19.014Z,1.38
2022-09-06T10:45:09.742Z,2.67
2022-09-06T10:47:55.975Z,0.73
2022-09-06T10:50:33.522Z,0.60
2022-09-06T10:53:13.831Z,1.25
2022-09-06T10:55:47.951Z,0.88
2022-09-06T10:58:24.621Z,1.45
2022-09-06T11:00:54.710Z,1.23
2022-09-06T11:06:26.707Z,2.50
2022-09-06T11:09:04.288Z,0.73
2022-09-06T11:11:41.679Z,1.45
2022-09-06T11:14:13.687Z,2.42
2022-09-06T11:16:49.550Z,1.55
2022-09-06T11:19:23.216Z,1.27
2022-09-06T11:22:27.500Z,0.88
2022-09-06T11:25:23.026Z,0.63
2022-09-06T11:27:58.294Z,0.50
2022-09-06T11:30:28.479Z,0.63
2022-09-06T11:33:12.206Z,1.48
2022-09-06T11:35:42.918Z,1.30
2022-09-06T11:38:25.735Z,0.47
2022-09-06T11:41:02.431Z,1.20
2022-09-06T11:43:49.124Z,0.52
2022-09-06T11:46:54.841Z,1.45
2022-09-06T11:49:32.809Z,0.88
2022-09-06T11:52:01.816Z,1.63
2022-09-06T11:54:39.811Z,1.88
2022-09-06T11:57:16.546Z,1.90
2022-09-06T11:59:57.879Z,1.05
2022-09-06T12:02:47.417Z,1.02
2022-09-06T12:05:27.253Z,3.25
2022-09-06T12:08:29.436Z,0.68
2022-09-06T12:11:23.410Z,1.45
2022-09-06T12:14:03.359Z,0.95
2022-09-06T12:17:28.911Z,1.48
2022-09-06T12:20:06.397Z,3.03
2022-09-06T12:22:58.790Z,1.98
2022-09-06T12:25:52.701Z,0.40
2022-09-06T12:28:29.042Z,0.80
2022-09-06T12:30:59.460Z,1.02
2022-09-06T12:33:32.433Z,0.65
2022-09-06T12:36:18.861Z,1.10
2022-09-06T12:39:01.156Z,0.68
2022-09-06T12:41:32.572Z,0.82
2022-09-06T12:44:03.119Z,1.27
2022-09-06T12:46:33.895Z,2.03
2022-09-06T12:49:08.860Z,1.05
2022-09-06T12:51:37.805Z,0.55
2022-09-06T12:54:18.164Z,1.48
2022-09-06T12:56:46.554Z,1.45
2022-09-06T12:59:17.431Z,0.95
2022-09-06T13:01:53.326Z,0.30
2022-09-06T13:04:29.234Z,0.55
2022-09-06T13:06:58.833Z,0.50
2022-09-06T13:09:30.246Z,2.05
2022-09-06T13:12:06.421Z,0.63
2022-09-06T13:14:36.227Z,1.38
2022-09-06T13:17:06.104Z,0.50
2022-09-06T13:19:37.385Z,0.63
2022-09-06T13:22:08.026Z,2.95
2022-09-06T13:24:49.321Z,2.65
2022-09-06T13:27:25.277Z,0.60
2022-09-06T13:29:58.722Z,1.60
2022-09-06T13:32:29.551Z,0.30
2022-09-06T13:35:00.605Z,0.98
2022-09-06T13:37:32.688Z,1.85
2022-09-06T13:40:05.383Z,1.92
2022-09-06T13:42:36.776Z,1.48
2022-09-06T13:45:23.282Z,2.08
2022-09-06T13:48:03.424Z,1.83
2022-09-06T13:50:42.459Z,0.93
2022-09-06T13:55:40.388Z,1.17
2022-09-06T13:58:09.268Z,4.18
2022-09-06T14:00:39.592Z,4.03
2022-09-06T14:03:12.004Z,1.85
2022-09-06T14:05:40.709Z,3.55
2022-09-06T14:08:09.089Z,5.43
2022-09-06T14:10:37.906Z,3.63
2022-09-06T14:13:07.089Z,5.38
2022-09-06T14:15:36.025Z,4.47
2022-09-06T14:18:04.759Z,2.42
2022-09-06T14:20:34.802Z,3.10
2022-09-06T14:23:03.308Z,2.65
2022-09-06T14:25:32.730Z,0.87
2022-09-06T14:28:01.463Z,2.17
2022-09-06T14:30:30.038Z,1.70
2022-09-06T14:32:58.747Z,0.60
2022-09-06T14:35:27.896Z,1.25
2022-09-06T14:37:57.910Z,2.00
2022-09-06T14:40:26.980Z,1.98
2022-09-06T14:42:55.515Z,1.05
2022-09-06T14:45:24.159Z,1.37
2022-09-06T14:47:52.780Z,4.40
2022-09-06T14:50:21.309Z,6.20
2022-09-06T14:52:49.848Z,2.63
2022-09-06T14:55:19.981Z,3.73
2022-09-06T14:57:48.636Z,1.95
2022-09-06T15:00:18.072Z,3.05
2022-09-06T15:02:46.874Z,1.50
2022-09-06T15:05:15.581Z,2.58
2022-09-06T15:07:44.228Z,1.90
2022-09-06T15:10:12.722Z,0.73
2022-09-06T15:12:42.749Z,0.97
2022-09-06T15:15:11.739Z,1.75
2022-09-06T15:17:40.430Z,3.30
2022-09-06T15:20:09.673Z,5.13
2022-09-06T15:22:39.118Z,1.08
2022-09-06T15:25:08.548Z,1.35
2022-09-06T15:30:07.916Z,0.63
2022-09-06T15:32:36.684Z,0.47
2022-09-06T15:35:06.273Z,1.57
2022-09-06T15:37:34.924Z,1.05
2022-09-06T15:40:03.962Z,1.63
2022-09-06T15:42:32.851Z,0.88
2022-09-06T15:45:01.485Z,1.50
2022-09-06T15:47:31.607Z,1.58
2022-09-06T15:50:00.122Z,1.75
2022-09-06T15:52:28.785Z,1.10
2022-09-06T15:55:23.361Z,1.00
2022-09-06T15:57:52.714Z,1.73
2022-09-06T16:02:53.869Z,0.50
2022-09-06T16:08:11.139Z,2.50
2022-09-06T16:10:39.954Z,2.88
2022-09-06T16:13:08.689Z,2.53
2022-09-06T16:15:37.219Z,2.10
2022-09-06T16:18:07.296Z,2.03
2022-09-06T16:20:38.872Z,1.35
2022-09-06T16:23:07.427Z,2.08
2022-09-06T16:25:35.960Z,1.48
2022-09-06T16:28:04.619Z,0.63
2022-09-06T16:30:33.352Z,2.50
2022-09-06T16:33:02.074Z,2.20
2022-09-06T16:35:32.114Z,0.63
2022-09-06T16:38:02.343Z,0.88
2022-09-06T16:40:31.084Z,0.88
2022-09-06T16:42:59.764Z,1.58
2022-09-06T16:45:28.436Z,2.40
2022-09-06T16:47:57.030Z,2.47
2022-09-06T16:50:26.039Z,1.20
2022-09-06T16:52:56.029Z,2.53
2022-09-06T16:55:24.707Z,2.70
2022-09-06T16:57:53.219Z,1.42
2022-09-06T17:00:22.045Z,1.50
2022-09-06T17:02:51.319Z,2.53
2022-09-06T17:05:19.921Z,2.70
2022-09-06T17:07:48.418Z,0.93
2022-09-06T17:10:18.786Z,1.27
2022-09-06T17:12:47.313Z,4.35
2022-09-06T17:15:16.548Z,0.40
2022-09-06T17:17:44.073Z,1.35
2022-09-06T17:20:12.752Z,0.52
2022-09-06T17:22:41.297Z,0.50
2022-09-06T17:25:10.343Z,1.13
2022-09-06T17:27:40.248Z,2.30
2022-09-06T17:30:10.358Z,0.50
2022-09-06T17:32:38.925Z,0.38
2022-09-06T17:35:08.305Z,0.40
2022-09-06T17:37:36.915Z,0.50
2022-09-06T17:40:05.949Z,0.55
2022-09-06T17:42:34.610Z,0.60
2022-09-06T17:45:04.948Z,0.80
2022-09-06T17:47:33.506Z,0.85
2022-09-06T17:50:02.248Z,3.47
2022-09-06T17:52:30.838Z,0.32
2022-09-06T17:54:59.592Z,0.93
2022-09-06T17:57:28.125Z,0.88
2022-09-06T17:59:56.661Z,0.50
2022-09-06T18:02:26.838Z,0.75
2022-09-06T18:04:55.694Z,0.95
2022-09-06T18:07:24.448Z,1.27
2022-09-06T18:09:52.949Z,1.95
2022-09-06T18:12:22.781Z,0.50
2022-09-06T18:14:51.380Z,0.77
2022-09-06T18:17:20.045Z,0.55
2022-09-06T18:19:50.281Z,0.65
2022-09-06T18:22:18.910Z,1.02
2022-09-06T18:24:48.718Z,0.73
2022-09-06T18:27:17.416Z,1.85
2022-09-06T18:29:45.902Z,0.52
2022-09-06T18:32:14.613Z,0.30
2022-09-06T18:34:43.186Z,0.50
2022-09-06T18:37:13.224Z,0.60
2022-09-06T18:39:42.663Z,0.40
2022-09-06T18:42:12.017Z,0.70
2022-09-06T18:47:10.340Z,0.50
2022-09-06T18:49:43.780Z,0.90
2022-09-06T18:52:14.186Z,0.38
2022-09-06T18:54:43.820Z,0.40
2022-09-06T18:57:13.406Z,0.85
2022-09-06T18:59:41.927Z,0.70
2022-09-06T19:02:10.717Z,0.33
2022-09-06T19:04:39.862Z,0.93
2022-09-06T19:07:08.524Z,0.98
2022-09-06T19:09:38.886Z,1.00
2022-09-06T19:12:07.664Z,0.65
2022-09-06T19:14:36.337Z,0.32
2022-09-06T19:17:05.771Z,0.70
2022-09-06T19:19:34.264Z,0.65
2022-09-06T19:22:02.899Z,0.50
2022-09-06T19:24:32.335Z,0.30
2022-09-06T19:27:02.402Z,0.45
2022-09-06T19:29:32.119Z,0.40
2022-09-06T19:32:00.775Z,1.88
2022-09-06T19:34:29.509Z,0.60
2022-09-06T19:36:58.160Z,0.50
2022-09-06T19:39:34.815Z,0.40
2022-09-06T19:42:07.433Z,0.40
2022-09-06T19:44:36.191Z,0.82
2022-09-06T19:47:04.956Z,0.73
2022-09-06T19:49:33.606Z,0.40
2022-09-06T19:52:04.499Z,0.30
2022-09-06T19:54:33.036Z,0.38
2022-09-06T19:57:01.792Z,0.40
2022-09-06T19:59:32.088Z,0.50
2022-09-06T20:02:00.919Z,2.90
2022-09-06T20:04:29.594Z,7.60
2022-09-06T20:06:58.297Z,1.70
2022-09-06T20:09:26.874Z,0.30
2022-09-06T20:11:55.376Z,2.25
2022-09-06T20:14:24.748Z,1.87
2022-09-06T20:19:23.136Z,0.50
2022-09-06T20:21:52.118Z,0.90
2022-09-06T20:24:20.813Z,0.63
2022-09-06T20:26:49.420Z,3.10
2022-09-06T20:29:18.312Z,0.40
2022-09-06T20:31:46.931Z,0.63
2022-09-06T20:34:19.757Z,0.90
2022-09-06T20:36:48.351Z,1.13
2022-09-06T20:39:17.144Z,0.40
2022-09-06T20:41:45.855Z,1.85
2022-09-06T20:44:14.878Z,0.70
2022-09-06T20:46:43.715Z,0.52
2022-09-06T20:49:12.745Z,1.38
2022-09-06T20:51:44.036Z,0.60
2022-09-06T20:54:14.053Z,1.48
2022-09-06T20:56:43.804Z,0.60
2022-09-06T20:59:14.715Z,0.73
2022-09-06T21:01:45.281Z,1.00
2022-09-06T21:04:16.200Z,0.90
2022-09-06T21:06:46.797Z,0.45
2022-09-06T21:09:16.299Z,0.32
2022-09-06T21:11:45.384Z,1.30
2022-09-06T21:14:14.079Z,0.57
2022-09-06T21:16:42.641Z,0.30
2022-09-06T21:19:12.470Z,1.63
2022-09-06T21:21:41.784Z,1.58
2022-09-06T21:24:13.283Z,1.08
2022-09-06T21:26:43.954Z,1.20
2022-09-06T21:29:12.961Z,0.47
2022-09-06T21:31:41.408Z,0.77
2022-09-06T21:34:16.832Z,1.42
2022-09-06T21:36:46.031Z,0.93
2022-09-06T21:39:16.340Z,0.75
2022-09-06T21:41:45.887Z,2.08
2022-09-06T21:44:15.019Z,2.47
2022-09-06T21:46:43.772Z,0.50
2022-09-06T21:49:14.697Z,0.80
2022-09-06T21:51:43.942Z,2.80
2022-09-06T21:54:12.631Z,2.10
2022-09-06T21:56:42.583Z,1.90
2022-09-06T21:59:11.880Z,0.85
2022-09-06T22:01:43.948Z,0.80
2022-09-06T22:04:14.490Z,1.80
2022-09-06T22:06:42.983Z,0.60
2022-09-06T22:09:13.203Z,2.03
2022-09-06T22:11:44.727Z,1.67
2022-09-06T22:14:15.692Z,0.90
2022-09-06T22:16:44.278Z,2.05
2022-09-06T22:19:13.376Z,1.53
2022-09-06T22:21:42.013Z,0.40
2022-09-06T22:24:13.273Z,0.68
2022-09-06T22:26:43.472Z,0.60
2022-09-06T22:29:13.746Z,0.65
2022-09-06T22:31:43.087Z,1.23
2022-09-06T22:36:40.637Z,0.65
2022-09-06T22:39:09.754Z,1.60
2022-09-06T22:41:38.640Z,1.02
2022-09-06T22:44:08.851Z,0.70
2022-09-06T22:46:38.509Z,0.60
2022-09-06T22:49:07.127Z,0.98
2022-09-06T22:51:35.876Z,0.50
2022-09-06T22:54:05.426Z,0.40
2022-09-06T22:56:34.090Z,1.58
2022-09-06T22:59:02.702Z,0.95
2022-09-06T23:01:34.444Z,0.43
2022-09-06T23:04:03.151Z,0.28
2022-09-06T23:06:31.849Z,0.50
2022-09-06T23:09:00.465Z,0.70
2022-09-06T23:11:29.509Z,0.32
2022-09-06T23:13:59.117Z,0.77
2022-09-06T23:16:29.081Z,1.13
2022-09-06T23:18:59.073Z,0.68
2022-09-06T23:21:28.203Z,0.80
2022-09-06T23:23:57.680Z,0.52
2022-09-06T23:26:29.728Z,0.77
2022-09-06T23:28:58.273Z,0.40
2022-09-06T23:31:28.418Z,0.70
2022-09-06T23:34:00.870Z,0.50
2022-09-06T23:36:30.303Z,0.40
2022-09-06T23:41:27.468Z,0.30
2022-09-06T23:43:56.329Z,0.60
2022-09-06T23:46:25.043Z,0.90
2022-09-06T23:48:53.699Z,0.32
2022-09-06T23:51:23.786Z,0.65
2022-09-06T23:53:52.495Z,0.50
2022-09-06T23:56:21.700Z,1.08
2022-09-06T23:58:50.208Z,0.60
